sensor_id;sensor_type;location;lat;lon;timestamp;temperature;humidity
3794;DHT22;1912;51.358;12.282;2023-05-18T03:46:27;6.40;1.00
3794;DHT22;1912;51.358;12.282;2023-05-18T03:48:52;6.30;1.00
3794;DHT22;1912;51.358;12.282;2023-05-18T03:51:19;6.40;1.00
3794;DHT22;1912;51.358;12.282;2023-05-18T03:53:45;6.30;1.00
3794;DHT22;1912;51.358;12.282;2023-05-18T03:56:11;6.40;1.00
3794;DHT22;1912;51.358;12.282;2023-05-18T03:58:37;6.40;1.00
3794;DHT22;1912;51.358;12.282;2023-05-18T04:01:03;6.40;1.00
3794;DHT22;1912;51.358;12.282;2023-05-18T04:03:29;6.30;1.00
3794;DHT22;1912;51.358;12.282;2023-05-18T04:05:55;6.30;1.00
3794;DHT22;1912;51.358;12.282;2023-05-18T04:08:21;6.40;1.00
3794;DHT22;1912;51.358;12.282;2023-05-18T04:10:50;6.50;1.00
3794;DHT22;1912;51.358;12.282;2023-05-18T04:13:16;6.40;1.00
3794;DHT22;1912;51.358;12.282;2023-05-18T04:15:42;6.50;1.00
3794;DHT22;1912;51.358;12.282;2023-05-18T04:18:08;6.40;1.00
3794;DHT22;1912;51.358;12.282;2023-05-18T04:20:34;6.40;1.00
3794;DHT22;1912;51.358;12.282;2023-05-18T04:23:02;6.50;1.00
3794;DHT22;1912;51.358;12.282;2023-05-18T04:25:29;6.50;1.00
3794;DHT22;1912;51.358;12.282;2023-05-18T04:27:55;6.50;1.00
3794;DHT22;1912;51.358;12.282;2023-05-18T04:30:22;6.50;1.00
3794;DHT22;1912;51.358;12.282;2023-05-18T04:32:48;6.50;1.00
3794;DHT22;1912;51.358;12.282;2023-05-18T04:35:14;6.50;1.00
3794;DHT22;1912;51.358;12.282;2023-05-18T04:37:40;6.60;1.00
3794;DHT22;1912;51.358;12.282;2023-05-18T04:40:08;6.60;1.00
3794;DHT22;1912;51.358;12.282;2023-05-18T04:42:42;6.70;1.00
3794;DHT22;1912;51.358;12.282;2023-05-18T04:45:15;6.80;1.00
3794;DHT22;1912;51.358;12.282;2023-05-18T04:47:44;6.80;1.00
3794;DHT22;1912;51.358;12.282;2023-05-18T04:50:16;6.80;1.00
3794;DHT22;1912;51.358;12.282;2023-05-18T04:52:43;6.90;1.00
3794;DHT22;1912;51.358;12.282;2023-05-18T04:55:19;7.00;1.00
3794;DHT22;1912;51.358;12.282;2023-05-18T04:57:52;7.00;1.00
3794;DHT22;1912;51.358;12.282;2023-05-18T05:00:24;7.10;1.00
3794;DHT22;1912;51.358;12.282;2023-05-18T05:02:50;7.10;1.00
3794;DHT22;1912;51.358;12.282;2023-05-18T05:05:16;7.20;1.00
3794;DHT22;1912;51.358;12.282;2023-05-18T05:07:43;7.20;1.00
3794;DHT22;1912;51.358;12.282;2023-05-18T05:10:09;7.20;1.00
3794;DHT22;1912;51.358;12.282;2023-05-18T05:12:38;7.40;1.00
3794;DHT22;1912;51.358;12.282;2023-05-18T05:15:05;7.40;1.00
3794;DHT22;1912;51.358;12.282;2023-05-18T05:17:31;7.40;1.00
3794;DHT22;1912;51.358;12.282;2023-05-18T05:19:57;7.50;1.00
3794;DHT22;1912;51.358;12.282;2023-05-18T05:22:23;7.50;1.00
3794;DHT22;1912;51.358;12.282;2023-05-18T05:24:48;7.70;1.00
3794;DHT22;1912;51.358;12.282;2023-05-18T05:27:14;7.90;1.00
3794;DHT22;1912;51.358;12.282;2023-05-18T05:29:39;8.30;1.00
3794;DHT22;1912;51.358;12.282;2023-05-18T05:32:06;8.70;1.00
3794;DHT22;1912;51.358;12.282;2023-05-18T05:34:31;9.10;1.00
3794;DHT22;1912;51.358;12.282;2023-05-18T05:36:57;9.50;1.00
3794;DHT22;1912;51.358;12.282;2023-05-18T05:39:23;10.00;1.00
3794;DHT22;1912;51.358;12.282;2023-05-18T05:41:48;10.20;1.00
3794;DHT22;1912;51.358;12.282;2023-05-18T05:44:14;10.20;1.00
3794;DHT22;1912;51.358;12.282;2023-05-18T05:46:39;10.10;1.00
3794;DHT22;1912;51.358;12.282;2023-05-18T05:49:05;10.50;1.00
3794;DHT22;1912;51.358;12.282;2023-05-18T05:51:31;10.80;1.00
3794;DHT22;1912;51.358;12.282;2023-05-18T05:53:56;11.00;1.00
3794;DHT22;1912;51.358;12.282;2023-05-18T05:56:22;11.00;1.00
3794;DHT22;1912;51.358;12.282;2023-05-18T05:58:48;11.30;1.00
3794;DHT22;1912;51.358;12.282;2023-05-18T06:01:13;11.60;1.00
3794;DHT22;1912;51.358;12.282;2023-05-18T06:03:39;12.00;1.00
3794;DHT22;1912;51.358;12.282;2023-05-18T06:06:05;11.80;1.00
3794;DHT22;1912;51.358;12.282;2023-05-18T06:08:30;11.80;1.00
3794;DHT22;1912;51.358;12.282;2023-05-18T06:10:56;11.70;1.00
3794;DHT22;1912;51.358;12.282;2023-05-18T06:13:22;12.10;1.00
3794;DHT22;1912;51.358;12.282;2023-05-18T06:15:47;12.10;1.00
3794;DHT22;1912;51.358;12.282;2023-05-18T06:18:13;12.30;1.00
3794;DHT22;1912;51.358;12.282;2023-05-18T06:20:39;12.60;1.00
3794;DHT22;1912;51.358;12.282;2023-05-18T06:23:04;12.30;1.00
3794;DHT22;1912;51.358;12.282;2023-05-18T06:25:30;12.90;1.00
3794;DHT22;1912;51.358;12.282;2023-05-18T06:27:56;12.90;1.00
3794;DHT22;1912;51.358;12.282;2023-05-18T06:30:21;12.70;1.00
3794;DHT22;1912;51.358;12.282;2023-05-18T06:32:47;12.50;1.00
3794;DHT22;1912;51.358;12.282;2023-05-18T06:35:13;12.90;1.00
3794;DHT22;1912;51.358;12.282;2023-05-18T06:37:38;13.30;1.00
3794;DHT22;1912;51.358;12.282;2023-05-18T06:40:05;12.90;1.00
3794;DHT22;1912;51.358;12.282;2023-05-18T06:42:32;12.80;1.00
3794;DHT22;1912;51.358;12.282;2023-05-18T06:44:58;13.10;1.00
3794;DHT22;1912;51.358;12.282;2023-05-18T06:47:24;13.30;1.00
3794;DHT22;1912;51.358;12.282;2023-05-18T06:49:49;12.90;1.00
3794;DHT22;1912;51.358;12.282;2023-05-18T06:52:15;13.10;1.00
3794;DHT22;1912;51.358;12.282;2023-05-18T06:54:41;13.40;1.00
3794;DHT22;1912;51.358;12.282;2023-05-18T06:57:07;13.50;1.00
3794;DHT22;1912;51.358;12.282;2023-05-18T06:59:33;13.60;1.00
3794;DHT22;1912;51.358;12.282;2023-05-18T07:02:01;13.70;1.00
3794;DHT22;1912;51.358;12.282;2023-05-18T07:04:27;13.60;1.00
3794;DHT22;1912;51.358;12.282;2023-05-18T07:06:53;13.50;1.00
3794;DHT22;1912;51.358;12.282;2023-05-18T07:09:20;13.60;1.00
3794;DHT22;1912;51.358;12.282;2023-05-18T07:11:47;14.10;1.00
3794;DHT22;1912;51.358;12.282;2023-05-18T07:14:13;14.50;1.00
3794;DHT22;1912;51.358;12.282;2023-05-18T07:16:39;14.80;1.00
3794;DHT22;1912;51.358;12.282;2023-05-18T07:19:04;15.00;1.00
3794;DHT22;1912;51.358;12.282;2023-05-18T07:21:30;15.10;1.00
3794;DHT22;1912;51.358;12.282;2023-05-18T07:23:56;15.30;1.00
3794;DHT22;1912;51.358;12.282;2023-05-18T07:26:21;15.40;1.00
3794;DHT22;1912;51.358;12.282;2023-05-18T07:28:47;15.40;1.00
3794;DHT22;1912;51.358;12.282;2023-05-18T07:31:13;15.40;1.00
3794;DHT22;1912;51.358;12.282;2023-05-18T07:33:41;15.70;1.00
3794;DHT22;1912;51.358;12.282;2023-05-18T07:36:08;16.00;1.00
3794;DHT22;1912;51.358;12.282;2023-05-18T07:38:35;15.80;1.00
3794;DHT22;1912;51.358;12.282;2023-05-18T07:41:00;15.90;1.00
3794;DHT22;1912;51.358;12.282;2023-05-18T07:43:26;16.00;1.00
3794;DHT22;1912;51.358;12.282;2023-05-18T07:45:51;16.30;1.00
3794;DHT22;1912;51.358;12.282;2023-05-18T07:48:17;16.60;1.00
3794;DHT22;1912;51.358;12.282;2023-05-18T07:50:43;16.50;1.00
3794;DHT22;1912;51.358;12.282;2023-05-18T07:53:09;16.90;1.00
3794;DHT22;1912;51.358;12.282;2023-05-18T07:55:34;16.80;1.00
3794;DHT22;1912;51.358;12.282;2023-05-18T07:58:00;17.10;1.00
3794;DHT22;1912;51.358;12.282;2023-05-18T08:00:26;17.20;1.00
3794;DHT22;1912;51.358;12.282;2023-05-18T08:02:52;17.50;1.00
3794;DHT22;1912;51.358;12.282;2023-05-18T08:05:18;17.30;1.00
3794;DHT22;1912;51.358;12.282;2023-05-18T08:07:46;17.20;1.00
3794;DHT22;1912;51.358;12.282;2023-05-18T08:10:12;17.20;1.00
3794;DHT22;1912;51.358;12.282;2023-05-18T08:12:38;17.50;1.00
3794;DHT22;1912;51.358;12.282;2023-05-18T08:15:04;17.20;1.00
3794;DHT22;1912;51.358;12.282;2023-05-18T08:17:30;17.00;1.00
3794;DHT22;1912;51.358;12.282;2023-05-18T08:19:56;17.20;1.00
3794;DHT22;1912;51.358;12.282;2023-05-18T08:22:21;17.10;1.00
3794;DHT22;1912;51.358;12.282;2023-05-18T08:24:47;16.50;1.00
3794;DHT22;1912;51.358;12.282;2023-05-18T08:27:13;15.90;1.00
3794;DHT22;1912;51.358;12.282;2023-05-18T08:29:38;16.10;1.00
3794;DHT22;1912;51.358;12.282;2023-05-18T08:32:05;16.40;1.00
3794;DHT22;1912;51.358;12.282;2023-05-18T08:34:31;16.30;1.00
3794;DHT22;1912;51.358;12.282;2023-05-18T08:36:57;16.40;1.00
3794;DHT22;1912;51.358;12.282;2023-05-18T08:39:23;16.40;1.00
3794;DHT22;1912;51.358;12.282;2023-05-18T08:42:43;16.40;1.00
3794;DHT22;1912;51.358;12.282;2023-05-18T08:47:35;16.50;1.00
3794;DHT22;1912;51.358;12.282;2023-05-18T08:50:01;16.40;1.00
3794;DHT22;1912;51.358;12.282;2023-05-18T08:52:29;16.60;1.00
3794;DHT22;1912;51.358;12.282;2023-05-18T08:55:00;17.00;1.00
3794;DHT22;1912;51.358;12.282;2023-05-18T08:57:32;17.10;1.00
3794;DHT22;1912;51.358;12.282;2023-05-18T08:59:59;17.30;1.00
3794;DHT22;1912;51.358;12.282;2023-05-18T09:02:26;17.60;1.00
3794;DHT22;1912;51.358;12.282;2023-05-18T09:04:53;18.10;1.00
3794;DHT22;1912;51.358;12.282;2023-05-18T09:07:19;18.90;1.00
3794;DHT22;1912;51.358;12.282;2023-05-18T09:09:47;18.70;1.00
3794;DHT22;1912;51.358;12.282;2023-05-18T09:12:15;19.00;1.00
3794;DHT22;1912;51.358;12.282;2023-05-18T09:14:41;18.40;1.00
3794;DHT22;1912;51.358;12.282;2023-05-18T09:17:08;18.40;1.00
3794;DHT22;1912;51.358;12.282;2023-05-18T09:19:34;17.70;1.00
3794;DHT22;1912;51.358;12.282;2023-05-18T09:22:00;17.50;1.00
3794;DHT22;1912;51.358;12.282;2023-05-18T09:24:26;18.10;1.00
3794;DHT22;1912;51.358;12.282;2023-05-18T09:26:52;18.70;1.00
3794;DHT22;1912;51.358;12.282;2023-05-18T09:29:19;18.70;1.00
3794;DHT22;1912;51.358;12.282;2023-05-18T09:31:46;18.10;1.00
3794;DHT22;1912;51.358;12.282;2023-05-18T09:34:13;17.80;1.00
3794;DHT22;1912;51.358;12.282;2023-05-18T09:36:40;17.80;1.00
3794;DHT22;1912;51.358;12.282;2023-05-18T09:39:09;17.80;1.00
3794;DHT22;1912;51.358;12.282;2023-05-18T09:41:39;17.90;1.00
3794;DHT22;1912;51.358;12.282;2023-05-18T09:44:06;17.70;1.00
3794;DHT22;1912;51.358;12.282;2023-05-18T09:46:37;17.30;1.00
3794;DHT22;1912;51.358;12.282;2023-05-18T09:49:05;18.20;1.00
3794;DHT22;1912;51.358;12.282;2023-05-18T09:51:35;19.10;1.00
3794;DHT22;1912;51.358;12.282;2023-05-18T09:54:02;19.80;1.00
3794;DHT22;1912;51.358;12.282;2023-05-18T09:56:34;19.80;1.00
3794;DHT22;1912;51.358;12.282;2023-05-18T09:59:11;19.50;1.00
3794;DHT22;1912;51.358;12.282;2023-05-18T10:02:01;19.90;1.00
3794;DHT22;1912;51.358;12.282;2023-05-18T10:04:42;20.50;1.00
3794;DHT22;1912;51.358;12.282;2023-05-18T10:07:12;21.00;1.00
3794;DHT22;1912;51.358;12.282;2023-05-18T10:09:40;20.90;1.00
3794;DHT22;1912;51.358;12.282;2023-05-18T10:12:14;21.00;1.00
3794;DHT22;1912;51.358;12.282;2023-05-18T10:14:42;21.10;1.00
3794;DHT22;1912;51.358;12.282;2023-05-18T10:17:13;21.60;1.00
3794;DHT22;1912;51.358;12.282;2023-05-18T10:19:40;21.20;1.00
3794;DHT22;1912;51.358;12.282;2023-05-18T10:22:07;20.80;1.00
3794;DHT22;1912;51.358;12.282;2023-05-18T10:24:37;20.80;1.00
3794;DHT22;1912;51.358;12.282;2023-05-18T10:27:07;21.00;1.00
3794;DHT22;1912;51.358;12.282;2023-05-18T10:29:35;21.50;1.00
3794;DHT22;1912;51.358;12.282;2023-05-18T10:32:03;20.50;1.00
3794;DHT22;1912;51.358;12.282;2023-05-18T10:34:30;21.30;1.00
3794;DHT22;1912;51.358;12.282;2023-05-18T10:36:56;21.70;1.00
3794;DHT22;1912;51.358;12.282;2023-05-18T10:39:25;22.00;1.00
3794;DHT22;1912;51.358;12.282;2023-05-18T10:41:53;22.10;1.00
3794;DHT22;1912;51.358;12.282;2023-05-18T10:44:21;22.10;1.00
3794;DHT22;1912;51.358;12.282;2023-05-18T10:46:49;22.10;1.00
3794;DHT22;1912;51.358;12.282;2023-05-18T10:49:16;22.50;1.00
3794;DHT22;1912;51.358;12.282;2023-05-18T10:51:43;22.30;1.00
3794;DHT22;1912;51.358;12.282;2023-05-18T10:54:12;21.50;1.00
3794;DHT22;1912;51.358;12.282;2023-05-18T10:56:44;21.50;1.00
3794;DHT22;1912;51.358;12.282;2023-05-18T10:59:12;22.10;1.00
3794;DHT22;1912;51.358;12.282;2023-05-18T11:01:39;22.90;1.00
3794;DHT22;1912;51.358;12.282;2023-05-18T11:04:06;23.00;1.00
3794;DHT22;1912;51.358;12.282;2023-05-18T11:06:32;23.30;1.00
3794;DHT22;1912;51.358;12.282;2023-05-18T11:09:00;23.20;1.00
3794;DHT22;1912;51.358;12.282;2023-05-18T11:11:26;22.30;1.00
3794;DHT22;1912;51.358;12.282;2023-05-18T11:14:00;20.60;1.00
3794;DHT22;1912;51.358;12.282;2023-05-18T11:16:34;20.60;1.00
3794;DHT22;1912;51.358;12.282;2023-05-18T11:19:07;20.70;1.00
3794;DHT22;1912;51.358;12.282;2023-05-18T11:26:56;20.20;1.00
3794;DHT22;1912;51.358;12.282;2023-05-18T11:29:33;20.40;1.00
3794;DHT22;1912;51.358;12.282;2023-05-18T11:32:00;20.90;1.00
3794;DHT22;1912;51.358;12.282;2023-05-18T11:34:45;21.60;1.00
3794;DHT22;1912;51.358;12.282;2023-05-18T11:37:16;21.30;1.00
3794;DHT22;1912;51.358;12.282;2023-05-18T11:39:55;21.80;1.00
3794;DHT22;1912;51.358;12.282;2023-05-18T11:42:21;21.50;1.00
3794;DHT22;1912;51.358;12.282;2023-05-18T11:44:53;20.80;1.00
3794;DHT22;1912;51.358;12.282;2023-05-18T11:47:22;20.40;1.00
3794;DHT22;1912;51.358;12.282;2023-05-18T11:49:48;21.10;1.00
3794;DHT22;1912;51.358;12.282;2023-05-18T11:52:19;21.10;1.00
3794;DHT22;1912;51.358;12.282;2023-05-18T11:54:58;20.90;1.00
3794;DHT22;1912;51.358;12.282;2023-05-18T12:00:00;20.90;1.00
3794;DHT22;1912;51.358;12.282;2023-05-18T12:02:31;20.50;1.00
3794;DHT22;1912;51.358;12.282;2023-05-18T12:04:59;20.30;1.00
3794;DHT22;1912;51.358;12.282;2023-05-18T12:07:27;20.20;1.00
3794;DHT22;1912;51.358;12.282;2023-05-18T12:09:57;20.20;1.00
3794;DHT22;1912;51.358;12.282;2023-05-18T12:12:24;20.20;1.00
3794;DHT22;1912;51.358;12.282;2023-05-18T12:14:56;19.40;1.00
3794;DHT22;1912;51.358;12.282;2023-05-18T12:20:15;19.20;1.00
3794;DHT22;1912;51.358;12.282;2023-05-18T12:22:44;19.50;1.00
3794;DHT22;1912;51.358;12.282;2023-05-18T12:25:16;19.60;1.00
3794;DHT22;1912;51.358;12.282;2023-05-18T12:27:43;20.40;1.00
3794;DHT22;1912;51.358;12.282;2023-05-18T12:30:11;20.50;1.00
3794;DHT22;1912;51.358;12.282;2023-05-18T12:32:38;20.90;1.00
3794;DHT22;1912;51.358;12.282;2023-05-18T12:35:09;20.70;1.00
3794;DHT22;1912;51.358;12.282;2023-05-18T12:37:44;20.10;1.00
3794;DHT22;1912;51.358;12.282;2023-05-18T12:40:14;20.00;1.00
3794;DHT22;1912;51.358;12.282;2023-05-18T12:42:58;20.10;1.00
3794;DHT22;1912;51.358;12.282;2023-05-18T12:45:33;20.00;1.00
3794;DHT22;1912;51.358;12.282;2023-05-18T12:48:03;19.90;1.00
3794;DHT22;1912;51.358;12.282;2023-05-18T12:50:33;20.10;1.00
3794;DHT22;1912;51.358;12.282;2023-05-18T12:52:59;20.00;1.00
3794;DHT22;1912;51.358;12.282;2023-05-18T12:55:26;20.40;1.00
3794;DHT22;1912;51.358;12.282;2023-05-18T13:00:37;19.50;1.00
3794;DHT22;1912;51.358;12.282;2023-05-18T13:03:10;19.50;1.00
3794;DHT22;1912;51.358;12.282;2023-05-18T13:05:38;20.10;1.00
3794;DHT22;1912;51.358;12.282;2023-05-18T13:08:05;20.40;1.00
3794;DHT22;1912;51.358;12.282;2023-05-18T13:10:31;20.50;1.00
3794;DHT22;1912;51.358;12.282;2023-05-18T13:12:58;20.50;1.00
3794;DHT22;1912;51.358;12.282;2023-05-18T13:15:37;20.70;1.00
3794;DHT22;1912;51.358;12.282;2023-05-18T13:18:06;20.60;1.00
3794;DHT22;1912;51.358;12.282;2023-05-18T13:23:10;19.80;1.00
3794;DHT22;1912;51.358;12.282;2023-05-18T13:25:37;19.70;1.00
3794;DHT22;1912;51.358;12.282;2023-05-18T13:28:04;19.50;1.00
3794;DHT22;1912;51.358;12.282;2023-05-18T13:30:30;18.80;1.00
3794;DHT22;1912;51.358;12.282;2023-05-18T13:32:57;19.00;1.00
3794;DHT22;1912;51.358;12.282;2023-05-18T13:35:24;18.80;1.00
3794;DHT22;1912;51.358;12.282;2023-05-18T13:37:50;18.90;1.00
3794;DHT22;1912;51.358;12.282;2023-05-18T13:40:19;19.20;1.00
3794;DHT22;1912;51.358;12.282;2023-05-18T13:42:46;19.40;1.00
3794;DHT22;1912;51.358;12.282;2023-05-18T13:45:13;19.70;1.00
3794;DHT22;1912;51.358;12.282;2023-05-18T13:47:39;20.00;1.00
3794;DHT22;1912;51.358;12.282;2023-05-18T13:50:06;19.80;1.00
3794;DHT22;1912;51.358;12.282;2023-05-18T13:52:33;20.20;1.00
3794;DHT22;1912;51.358;12.282;2023-05-18T13:55:01;21.20;1.00
3794;DHT22;1912;51.358;12.282;2023-05-18T13:57:27;21.50;1.00
3794;DHT22;1912;51.358;12.282;2023-05-18T13:59:55;21.70;1.00
3794;DHT22;1912;51.358;12.282;2023-05-18T14:02:23;20.90;1.00
3794;DHT22;1912;51.358;12.282;2023-05-18T14:04:52;21.20;1.00
3794;DHT22;1912;51.358;12.282;2023-05-18T14:07:17;21.30;1.00
3794;DHT22;1912;51.358;12.282;2023-05-18T14:09:43;21.20;1.00
3794;DHT22;1912;51.358;12.282;2023-05-18T14:12:09;20.50;1.00
3794;DHT22;1912;51.358;12.282;2023-05-18T14:14:36;20.20;1.00
3794;DHT22;1912;51.358;12.282;2023-05-18T14:17:02;19.70;1.00
3794;DHT22;1912;51.358;12.282;2023-05-18T14:19:27;19.50;1.00
3794;DHT22;1912;51.358;12.282;2023-05-18T14:21:53;19.40;1.00
3794;DHT22;1912;51.358;12.282;2023-05-18T14:24:19;20.10;1.00
3794;DHT22;1912;51.358;12.282;2023-05-18T14:26:44;20.10;1.00
3794;DHT22;1912;51.358;12.282;2023-05-18T14:29:10;20.20;1.00
3794;DHT22;1912;51.358;12.282;2023-05-18T14:31:36;20.00;1.00
3794;DHT22;1912;51.358;12.282;2023-05-18T14:34:01;19.90;1.00
3794;DHT22;1912;51.358;12.282;2023-05-18T14:36:27;20.00;1.00
3794;DHT22;1912;51.358;12.282;2023-05-18T14:38:53;20.60;1.00
3794;DHT22;1912;51.358;12.282;2023-05-18T14:41:18;20.60;1.00
3794;DHT22;1912;51.358;12.282;2023-05-18T14:43:46;20.60;1.00
3794;DHT22;1912;51.358;12.282;2023-05-18T14:46:11;20.60;1.00
3794;DHT22;1912;51.358;12.282;2023-05-18T14:48:37;20.80;1.00
3794;DHT22;1912;51.358;12.282;2023-05-18T14:51:03;20.60;1.00
3794;DHT22;1912;51.358;12.282;2023-05-18T14:53:29;20.10;1.00
3794;DHT22;1912;51.358;12.282;2023-05-18T14:55:55;20.30;1.00
3794;DHT22;1912;51.358;12.282;2023-05-18T14:58:21;20.70;1.00
3794;DHT22;1912;51.358;12.282;2023-05-18T15:00:46;20.60;1.00
3794;DHT22;1912;51.358;12.282;2023-05-18T15:03:12;20.40;1.00
3794;DHT22;1912;51.358;12.282;2023-05-18T15:05:38;20.20;1.00
3794;DHT22;1912;51.358;12.282;2023-05-18T15:08:04;19.70;1.00
3794;DHT22;1912;51.358;12.282;2023-05-18T15:10:29;19.30;1.00
3794;DHT22;1912;51.358;12.282;2023-05-18T15:12:55;19.30;1.00
3794;DHT22;1912;51.358;12.282;2023-05-18T15:15:22;19.60;1.00
3794;DHT22;1912;51.358;12.282;2023-05-18T15:17:47;19.40;1.00
3794;DHT22;1912;51.358;12.282;2023-05-18T15:20:13;19.80;1.00
3794;DHT22;1912;51.358;12.282;2023-05-18T15:22:39;19.80;1.00
3794;DHT22;1912;51.358;12.282;2023-05-18T15:25:06;19.80;1.00
3794;DHT22;1912;51.358;12.282;2023-05-18T15:27:37;20.20;1.00
3794;DHT22;1912;51.358;12.282;2023-05-18T15:30:03;20.50;1.00
3794;DHT22;1912;51.358;12.282;2023-05-18T15:32:36;20.80;1.00
3794;DHT22;1912;51.358;12.282;2023-05-18T15:35:05;20.10;1.00
3794;DHT22;1912;51.358;12.282;2023-05-18T15:37:32;20.20;1.00
3794;DHT22;1912;51.358;12.282;2023-05-18T15:39:57;19.80;1.00
3794;DHT22;1912;51.358;12.282;2023-05-18T15:42:24;19.70;1.00
3794;DHT22;1912;51.358;12.282;2023-05-18T15:44:49;19.80;1.00
3794;DHT22;1912;51.358;12.282;2023-05-18T15:47:15;19.70;1.00
3794;DHT22;1912;51.358;12.282;2023-05-18T15:49:41;19.20;1.00
3794;DHT22;1912;51.358;12.282;2023-05-18T15:52:06;19.10;1.00
3794;DHT22;1912;51.358;12.282;2023-05-18T15:54:32;19.00;1.00
3794;DHT22;1912;51.358;12.282;2023-05-18T15:56:59;18.80;1.00
3794;DHT22;1912;51.358;12.282;2023-05-18T15:59:25;18.80;1.00
3794;DHT22;1912;51.358;12.282;2023-05-18T16:01:51;19.00;1.00
3794;DHT22;1912;51.358;12.282;2023-05-18T16:04:17;19.00;1.00
3794;DHT22;1912;51.358;12.282;2023-05-18T16:06:43;19.40;1.00
3794;DHT22;1912;51.358;12.282;2023-05-18T16:09:08;19.70;1.00
3794;DHT22;1912;51.358;12.282;2023-05-18T16:11:34;19.70;1.00
3794;DHT22;1912;51.358;12.282;2023-05-18T16:14:00;19.50;1.00
3794;DHT22;1912;51.358;12.282;2023-05-18T16:16:26;19.30;1.00
3794;DHT22;1912;51.358;12.282;2023-05-18T16:18:52;19.50;1.00
3794;DHT22;1912;51.358;12.282;2023-05-18T16:21:18;19.70;1.00
3794;DHT22;1912;51.358;12.282;2023-05-18T16:23:44;20.10;1.00
3794;DHT22;1912;51.358;12.282;2023-05-18T16:26:11;19.80;1.00
3794;DHT22;1912;51.358;12.282;2023-05-18T16:28:37;19.60;1.00
3794;DHT22;1912;51.358;12.282;2023-05-18T16:31:03;19.70;1.00
3794;DHT22;1912;51.358;12.282;2023-05-18T16:33:32;20.10;1.00
3794;DHT22;1912;51.358;12.282;2023-05-18T16:35:59;19.70;1.00
3794;DHT22;1912;51.358;12.282;2023-05-18T16:38:25;19.50;1.00
3794;DHT22;1912;51.358;12.282;2023-05-18T16:40:51;18.80;1.00
3794;DHT22;1912;51.358;12.282;2023-05-18T16:43:16;18.70;1.00
3794;DHT22;1912;51.358;12.282;2023-05-18T16:45:42;18.50;1.00
3794;DHT22;1912;51.358;12.282;2023-05-18T16:48:08;18.40;1.00
3794;DHT22;1912;51.358;12.282;2023-05-18T16:50:34;18.40;1.00
3794;DHT22;1912;51.358;12.282;2023-05-18T16:53:00;18.70;1.00
3794;DHT22;1912;51.358;12.282;2023-05-18T16:55:26;18.90;1.00
3794;DHT22;1912;51.358;12.282;2023-05-18T16:57:52;18.80;1.00
3794;DHT22;1912;51.358;12.282;2023-05-18T17:00:18;18.70;1.00
3794;DHT22;1912;51.358;12.282;2023-05-18T17:02:44;18.40;1.00
3794;DHT22;1912;51.358;12.282;2023-05-18T17:05:10;18.30;1.00
3794;DHT22;1912;51.358;12.282;2023-05-18T17:07:36;18.20;1.00
3794;DHT22;1912;51.358;12.282;2023-05-18T17:10:03;18.10;1.00
3794;DHT22;1912;51.358;12.282;2023-05-18T17:12:30;18.00;1.00
3794;DHT22;1912;51.358;12.282;2023-05-18T17:14:56;17.60;1.00
3794;DHT22;1912;51.358;12.282;2023-05-18T17:17:22;17.40;1.00
3794;DHT22;1912;51.358;12.282;2023-05-18T17:19:48;17.10;1.00
3794;DHT22;1912;51.358;12.282;2023-05-18T17:22:13;17.10;1.00
3794;DHT22;1912;51.358;12.282;2023-05-18T17:24:39;17.10;1.00
3794;DHT22;1912;51.358;12.282;2023-05-18T17:27:05;16.90;1.00
3794;DHT22;1912;51.358;12.282;2023-05-18T17:29:31;16.80;1.00
3794;DHT22;1912;51.358;12.282;2023-05-18T17:31:57;16.80;1.00
3794;DHT22;1912;51.358;12.282;2023-05-18T17:34:23;16.90;1.00
3794;DHT22;1912;51.358;12.282;2023-05-18T17:36:51;16.90;1.00
3794;DHT22;1912;51.358;12.282;2023-05-18T17:39:18;16.80;1.00
3794;DHT22;1912;51.358;12.282;2023-05-18T17:41:44;16.90;1.00
3794;DHT22;1912;51.358;12.282;2023-05-18T17:44:10;16.80;1.00
3794;DHT22;1912;51.358;12.282;2023-05-18T17:46:42;16.70;1.00
3794;DHT22;1912;51.358;12.282;2023-05-18T17:49:14;16.50;1.00
3794;DHT22;1912;51.358;12.282;2023-05-18T17:51:40;16.40;1.00
3794;DHT22;1912;51.358;12.282;2023-05-18T17:54:06;16.40;1.00
3794;DHT22;1912;51.358;12.282;2023-05-18T17:56:33;16.30;1.00
3794;DHT22;1912;51.358;12.282;2023-05-18T17:58:59;16.30;1.00
3794;DHT22;1912;51.358;12.282;2023-05-18T18:01:25;16.40;1.00
3794;DHT22;1912;51.358;12.282;2023-05-18T18:03:51;16.40;1.00
3794;DHT22;1912;51.358;12.282;2023-05-18T18:06:17;16.40;1.00
3794;DHT22;1912;51.358;12.282;2023-05-18T18:08:53;16.30;1.00
3794;DHT22;1912;51.358;12.282;2023-05-18T18:11:22;16.20;1.00
3794;DHT22;1912;51.358;12.282;2023-05-18T18:13:49;16.10;1.00
3794;DHT22;1912;51.358;12.282;2023-05-18T18:16:16;16.10;1.00
3794;DHT22;1912;51.358;12.282;2023-05-18T18:18:42;15.90;1.00
3794;DHT22;1912;51.358;12.282;2023-05-18T18:21:09;15.80;1.00
3794;DHT22;1912;51.358;12.282;2023-05-18T18:23:36;15.70;1.00
3794;DHT22;1912;51.358;12.282;2023-05-18T18:26:03;15.70;1.00
3794;DHT22;1912;51.358;12.282;2023-05-18T18:28:29;15.50;1.00
3794;DHT22;1912;51.358;12.282;2023-05-18T18:30:56;15.40;1.00
3794;DHT22;1912;51.358;12.282;2023-05-18T18:33:22;15.50;1.00
3794;DHT22;1912;51.358;12.282;2023-05-18T18:35:50;15.40;1.00
3794;DHT22;1912;51.358;12.282;2023-05-18T18:38:16;15.20;1.00
3794;DHT22;1912;51.358;12.282;2023-05-18T18:40:42;15.20;1.00
3794;DHT22;1912;51.358;12.282;2023-05-18T18:43:08;15.20;1.00
3794;DHT22;1912;51.358;12.282;2023-05-18T18:45:34;15.20;1.00
3794;DHT22;1912;51.358;12.282;2023-05-18T18:48:00;15.10;1.00
3794;DHT22;1912;51.358;12.282;2023-05-18T18:50:26;15.10;1.00
3794;DHT22;1912;51.358;12.282;2023-05-18T18:52:52;15.00;1.00
3794;DHT22;1912;51.358;12.282;2023-05-18T18:55:18;14.70;1.00
3794;DHT22;1912;51.358;12.282;2023-05-18T18:57:44;14.60;1.00
3794;DHT22;1912;51.358;12.282;2023-05-18T19:00:10;14.60;1.00
3794;DHT22;1912;51.358;12.282;2023-05-18T19:02:38;14.50;1.00
3794;DHT22;1912;51.358;12.282;2023-05-18T19:05:04;14.40;1.00
3794;DHT22;1912;51.358;12.282;2023-05-18T19:07:31;14.50;1.00
3794;DHT22;1912;51.358;12.282;2023-05-18T19:09:57;14.30;1.00
3794;DHT22;1912;51.358;12.282;2023-05-18T19:12:22;14.30;1.00
3794;DHT22;1912;51.358;12.282;2023-05-18T19:14:48;14.20;1.00
3794;DHT22;1912;51.358;12.282;2023-05-18T19:17:14;14.10;1.00
3794;DHT22;1912;51.358;12.282;2023-05-18T19:19:40;14.10;1.00
3794;DHT22;1912;51.358;12.282;2023-05-18T19:22:06;14.10;1.00
3794;DHT22;1912;51.358;12.282;2023-05-18T19:24:32;14.10;1.00
3794;DHT22;1912;51.358;12.282;2023-05-18T19:26:57;14.00;1.00
3794;DHT22;1912;51.358;12.282;2023-05-18T19:29:23;14.00;1.00
3794;DHT22;1912;51.358;12.282;2023-05-18T19:31:51;14.00;1.00
3794;DHT22;1912;51.358;12.282;2023-05-18T19:34:17;14.00;1.00
3794;DHT22;1912;51.358;12.282;2023-05-18T19:36:43;14.00;1.00
3794;DHT22;1912;51.358;12.282;2023-05-18T19:39:09;13.90;1.00
3794;DHT22;1912;51.358;12.282;2023-05-18T19:41:34;13.80;1.00
3794;DHT22;1912;51.358;12.282;2023-05-18T19:44:01;13.80;1.00
3794;DHT22;1912;51.358;12.282;2023-05-18T19:46:26;13.80;1.00
3794;DHT22;1912;51.358;12.282;2023-05-18T19:48:52;13.70;1.00
3794;DHT22;1912;51.358;12.282;2023-05-18T19:51:18;13.70;1.00
3794;DHT22;1912;51.358;12.282;2023-05-18T19:53:44;13.70;1.00
3794;DHT22;1912;51.358;12.282;2023-05-18T19:56:10;13.60;1.00
3794;DHT22;1912;51.358;12.282;2023-05-18T19:58:36;13.60;1.00
3794;DHT22;1912;51.358;12.282;2023-05-18T20:01:01;13.60;1.00
3794;DHT22;1912;51.358;12.282;2023-05-18T20:03:27;13.60;1.00
3794;DHT22;1912;51.358;12.282;2023-05-18T20:05:54;13.60;1.00
3794;DHT22;1912;51.358;12.282;2023-05-18T20:08:20;13.60;1.00